トロムソ空港の過去48時間の天気

トロムソ空港 (Tromso / Langnes)

現在時刻: 1/18 11:27 CET (1/18 10:27 UTC) 以下の時間は現地時間です。

過去48時間のMETAR気象情報
時間 風向 風速(m/s) 視程 気温(℃) 湿度(%) 気圧(hPa) 天気現象
18 10:50 2 10km以上 -7 79 1004
18 10:20 2 10km以上 -8 79 1004
18 09:50 不定 1 10km以上 -9 85 1005
18 09:20 東北東 2 10km以上 -9 85 1005
18 08:50 2 10km以上 -9 85 1005
18 08:20 東北東 2 10km以上 -9 85 1005
18 07:50 静穏 0 10km以上 -9 85 1005
18 07:20 不定 1 10km以上 -8 73 1005
18 06:50 2 10km以上 -9 79 1006
18 06:20 不定 2 10km以上 -9 79 1006
18 04:20 2 10km以上 -8 73 1007
18 03:20 東北東 3 10km以上 -9 73 1008
18 02:50 2 10km以上 -8 73 1008
18 02:20 3 10km以上 -8 73 1008
18 01:20 東北東 2 10km以上 -9 79 1008
18 00:50 2 10km以上 -8 73 1009
18 00:20 東北東 2 10km以上 -9 79 1009
17 23:50 2 10km以上 -9 79 1009
17 23:20 2 10km以上 -9 73 1009
17 22:50 東北東 2 10km以上 -9 73 1009
17 22:20 東北東 2 10km以上 -8 67 1010
17 21:50 東北東 2 10km以上 -9 73 1010
17 21:20 東南東 2 10km以上 -8 73 1010
17 20:50 東北東 2 10km以上 -8 73 1010
ENTC 180950Z 08004KT CAVOK M07/M10 Q1004 NOSIG RMK WIND 2600FT 16019KT
ENTC 180920Z 08003KT 050V110 CAVOK M08/M11 Q1004 NOSIG RMK WIND 2600FT 15019KT
ENTC 180850Z VRB01KT CAVOK M09/M11 Q1005 NOSIG RMK WIND 2600FT 14017KT
ENTC 180820Z 06003KT CAVOK M09/M11 Q1005 NOSIG RMK WIND 2600FT 15016KT
ENTC 180750Z 09004KT CAVOK M09/M11 Q1005 NOSIG RMK WIND 2600FT 15014KT
ENTC 180720Z 06004KT CAVOK M09/M11 Q1005 NOSIG RMK WIND 2600FT 15014KT
ENTC 180650Z 00000KT CAVOK M09/M11 Q1005 NOSIG RMK WIND 2600FT 14011KT
ENTC 180620Z VRB02KT CAVOK M08/M12 Q1005 NOSIG RMK WIND 2600FT 14012KT
ENTC 180550Z 10003KT CAVOK M09/M12 Q1006 RMK WIND 2600FT 15011KT
ENTC 180520Z VRB03KT CAVOK M09/M12 Q1006 RMK WIND 2600FT 13010KT
ENTC 180320Z 10003KT CAVOK M08/M12 Q1007 RMK WIND 2600FT 12011KT
ENTC 180220Z 07005KT CAVOK M09/M13 Q1008 RMK WIND 2600FT 14010KT
ENTC 180150Z 08004KT CAVOK M08/M12 Q1008 RMK WIND 2600FT 16011KT
ENTC 180120Z 09005KT CAVOK M08/M12 Q1008 RMK WIND 2600FT 16013KT
ENTC 180020Z 07004KT CAVOK M09/M12 Q1008 RMK WIND 2600FT 17010KT
ENTC 172350Z 09003KT CAVOK M08/M12 Q1009 RMK WIND 2600FT 16013KT
ENTC 172320Z 07003KT CAVOK M09/M12 Q1009 RMK WIND 2600FT 17012KT
ENTC 172250Z 08003KT CAVOK M09/M12 Q1009 RMK WIND 2600FT 16014KT
ENTC 172220Z 08003KT CAVOK M09/M13 Q1009 RMK WIND 2600FT 16014KT
ENTC 172150Z 06003KT 020V090 CAVOK M09/M13 Q1009 NOSIG RMK WIND 2600FT 15015KT
ENTC 172120Z 06004KT 020V090 CAVOK M08/M13 Q1010 NOSIG RMK WIND 2600FT 16014KT
ENTC 172050Z 07003KT CAVOK M09/M13 Q1010 NOSIG RMK WIND 2600FT 16013KT
ENTC 172020Z 11004KT CAVOK M08/M12 Q1010 NOSIG RMK WIND 2600FT 15013KT
ENTC 171950Z 06004KT CAVOK M08/M12 Q1010 NOSIG RMK WIND 2600FT 16014KT